sensor_id;sensor_type;location;lat;lon;timestamp;temperature;humidity
50957;DHT22;55361;50.876;20.634;2022-07-29T00:00:23;23;74
50957;DHT22;55361;50.876;20.634;2022-07-29T00:07:16;26;82
50957;DHT22;55361;50.876;20.634;2022-07-29T00:14:14;26;82
50957;DHT22;55361;50.876;20.634;2022-07-29T00:21:16;26;82
50957;DHT22;55361;50.876;20.634;2022-07-29T00:28:02;26;82
50957;DHT22;55361;50.876;20.634;2022-07-29T00:42:02;25;85
50957;DHT22;55361;50.876;20.634;2022-07-29T00:49:02;25;85
50957;DHT22;55361;50.876;20.634;2022-07-29T00:56:16;25;85
50957;DHT22;55361;50.876;20.634;2022-07-29T01:00:30;25;85
50957;DHT22;55361;50.876;20.634;2022-07-29T01:07:18;25;86
50957;DHT22;55361;50.876;20.634;2022-07-29T01:14:03;25;86
50957;DHT22;55361;50.876;20.634;2022-07-29T01:21:55;25;86
50957;DHT22;55361;50.876;20.634;2022-07-29T01:35:28;24;85
50957;DHT22;55361;50.876;20.634;2022-07-29T01:42:17;24;85
50957;DHT22;55361;50.876;20.634;2022-07-29T01:49:10;24;85
50957;DHT22;55361;50.876;20.634;2022-07-29T01:56:40;24;85
50957;DHT22;55361;50.876;20.634;2022-07-29T02:00:05;24;85
50957;DHT22;55361;50.876;20.634;2022-07-29T02:07:29;23;89
50957;DHT22;55361;50.876;20.634;2022-07-29T02:14:03;23;89
50957;DHT22;55361;50.876;20.634;2022-07-29T02:21:04;23;89
50957;DHT22;55361;50.876;20.634;2022-07-29T02:28:15;23;89
50957;DHT22;55361;50.876;20.634;2022-07-29T02:35:06;25;86
50957;DHT22;55361;50.876;20.634;2022-07-29T02:42:42;25;86
50957;DHT22;55361;50.876;20.634;2022-07-29T02:50:02;25;86
50957;DHT22;55361;50.876;20.634;2022-07-29T02:56:06;25;86
50957;DHT22;55361;50.876;20.634;2022-07-29T03:00:09;25;86
50957;DHT22;55361;50.876;20.634;2022-07-29T03:07:08;24;87
50957;DHT22;55361;50.876;20.634;2022-07-29T03:14:18;24;87
50957;DHT22;55361;50.876;20.634;2022-07-29T03:21:20;24;87
50957;DHT22;55361;50.876;20.634;2022-07-29T03:28:17;24;87
50957;DHT22;55361;50.876;20.634;2022-07-29T03:35:04;24;85
50957;DHT22;55361;50.876;20.634;2022-07-29T03:42:33;24;85
50957;DHT22;55361;50.876;20.634;2022-07-29T03:49:04;24;85
50957;DHT22;55361;50.876;20.634;2022-07-29T03:56:03;24;85
50957;DHT22;55361;50.876;20.634;2022-07-29T04:00:10;24;85
50957;DHT22;55361;50.876;20.634;2022-07-29T04:07:04;24;86
50957;DHT22;55361;50.876;20.634;2022-07-29T04:14:02;24;86
50957;DHT22;55361;50.876;20.634;2022-07-29T04:21:27;24;86
50957;DHT22;55361;50.876;20.634;2022-07-29T04:28:15;24;86
50957;DHT22;55361;50.876;20.634;2022-07-29T04:35:10;24;85
50957;DHT22;55361;50.876;20.634;2022-07-29T04:42:06;24;85
50957;DHT22;55361;50.876;20.634;2022-07-29T04:49:05;24;85
50957;DHT22;55361;50.876;20.634;2022-07-29T04:56:19;24;85
50957;DHT22;55361;50.876;20.634;2022-07-29T05:00:11;24;85
50957;DHT22;55361;50.876;20.634;2022-07-29T05:07:02;24;86
50957;DHT22;55361;50.876;20.634;2022-07-29T05:14:02;24;86
50957;DHT22;55361;50.876;20.634;2022-07-29T05:21:02;24;86
50957;DHT22;55361;50.876;20.634;2022-07-29T05:28:16;24;86
50957;DHT22;55361;50.876;20.634;2022-07-29T05:35:09;24;87
50957;DHT22;55361;50.876;20.634;2022-07-29T05:42:08;24;87
50957;DHT22;55361;50.876;20.634;2022-07-29T05:49:21;24;87
50957;DHT22;55361;50.876;20.634;2022-07-29T05:56:13;24;87
50957;DHT22;55361;50.876;20.634;2022-07-29T06:00:23;24;87
50957;DHT22;55361;50.876;20.634;2022-07-29T06:14:05;23;88
50957;DHT22;55361;50.876;20.634;2022-07-29T06:21:12;23;88
50957;DHT22;55361;50.876;20.634;2022-07-29T06:28:16;23;88
50957;DHT22;55361;50.876;20.634;2022-07-29T06:42:06;23;88
50957;DHT22;55361;50.876;20.634;2022-07-29T06:49:02;23;88
50957;DHT22;55361;50.876;20.634;2022-07-29T06:56:09;23;88
50957;DHT22;55361;50.876;20.634;2022-07-29T07:00:02;23;88
50957;DHT22;55361;50.876;20.634;2022-07-29T07:14:13;23;89
50957;DHT22;55361;50.876;20.634;2022-07-29T07:21:05;23;89
50957;DHT22;55361;50.876;20.634;2022-07-29T07:28:03;23;89
50957;DHT22;55361;50.876;20.634;2022-07-29T07:42:06;23;90
50957;DHT22;55361;50.876;20.634;2022-07-29T07:49:21;23;90
50957;DHT22;55361;50.876;20.634;2022-07-29T07:56:09;23;90
50957;DHT22;55361;50.876;20.634;2022-07-29T08:00:04;23;90
50957;DHT22;55361;50.876;20.634;2022-07-29T08:14:04;23;89
50957;DHT22;55361;50.876;20.634;2022-07-29T08:21:03;23;89
50957;DHT22;55361;50.876;20.634;2022-07-29T08:28:08;23;89
50957;DHT22;55361;50.876;20.634;2022-07-29T08:35:14;23;89
50957;DHT22;55361;50.876;20.634;2022-07-29T08:42:21;23;89
50957;DHT22;55361;50.876;20.634;2022-07-29T08:49:03;23;89
50957;DHT22;55361;50.876;20.634;2022-07-29T08:56:06;23;89
50957;DHT22;55361;50.876;20.634;2022-07-29T09:00:11;23;89
50957;DHT22;55361;50.876;20.634;2022-07-29T09:14:05;23;91
50957;DHT22;55361;50.876;20.634;2022-07-29T09:28:29;23;91
50957;DHT22;55361;50.876;20.634;2022-07-29T09:35:31;23;91
50957;DHT22;55361;50.876;20.634;2022-07-29T09:42:04;23;91
50957;DHT22;55361;50.876;20.634;2022-07-29T09:49:20;23;91
50957;DHT22;55361;50.876;20.634;2022-07-29T09:56:08;23;91
50957;DHT22;55361;50.876;20.634;2022-07-29T10:00:20;23;91
50957;DHT22;55361;50.876;20.634;2022-07-29T10:14:19;23;90
50957;DHT22;55361;50.876;20.634;2022-07-29T10:21:19;23;90
50957;DHT22;55361;50.876;20.634;2022-07-29T10:28:18;23;90
50957;DHT22;55361;50.876;20.634;2022-07-29T10:35:18;23;90
50957;DHT22;55361;50.876;20.634;2022-07-29T10:42:39;23;90
50957;DHT22;55361;50.876;20.634;2022-07-29T10:49:22;23;90
50957;DHT22;55361;50.876;20.634;2022-07-29T10:56:03;23;90
50957;DHT22;55361;50.876;20.634;2022-07-29T11:00:33;23;90
50957;DHT22;55361;50.876;20.634;2022-07-29T11:07:30;23;90
50957;DHT22;55361;50.876;20.634;2022-07-29T11:14:04;22;90
50957;DHT22;55361;50.876;20.634;2022-07-29T11:21:36;22;90
50957;DHT22;55361;50.876;20.634;2022-07-29T11:28:36;22;90
50957;DHT22;55361;50.876;20.634;2022-07-29T11:35:34;22;90
50957;DHT22;55361;50.876;20.634;2022-07-29T11:42:51;22;91
50957;DHT22;55361;50.876;20.634;2022-07-29T11:49:21;22;91
50957;DHT22;55361;50.876;20.634;2022-07-29T11:56:08;22;91
50957;DHT22;55361;50.876;20.634;2022-07-29T12:00:40;22;91
50957;DHT22;55361;50.876;20.634;2022-07-29T12:07:02;22;91
50957;DHT22;55361;50.876;20.634;2022-07-29T12:14:04;23;91
50957;DHT22;55361;50.876;20.634;2022-07-29T12:21:02;23;91
50957;DHT22;55361;50.876;20.634;2022-07-29T12:28:23;23;91
50957;DHT22;55361;50.876;20.634;2022-07-29T12:35:32;23;91
50957;DHT22;55361;50.876;20.634;2022-07-29T12:42:15;23;91
50957;DHT22;55361;50.876;20.634;2022-07-29T12:49:05;23;91
50957;DHT22;55361;50.876;20.634;2022-07-29T12:56:16;23;91
50957;DHT22;55361;50.876;20.634;2022-07-29T13:07:24;23;91
50957;DHT22;55361;50.876;20.634;2022-07-29T13:14:37;24;88
50957;DHT22;55361;50.876;20.634;2022-07-29T13:21:18;24;88
50957;DHT22;55361;50.876;20.634;2022-07-29T13:28:05;24;88
50957;DHT22;55361;50.876;20.634;2022-07-29T13:35:11;24;88
50957;DHT22;55361;50.876;20.634;2022-07-29T13:49:18;23;79
50957;DHT22;55361;50.876;20.634;2022-07-29T13:56:05;23;79
50957;DHT22;55361;50.876;20.634;2022-07-29T14:00:06;23;79
50957;DHT22;55361;50.876;20.634;2022-07-29T14:07:16;23;79
50957;DHT22;55361;50.876;20.634;2022-07-29T14:21:02;25;70
50957;DHT22;55361;50.876;20.634;2022-07-29T14:28:05;25;70
50957;DHT22;55361;50.876;20.634;2022-07-29T14:35:05;25;70
50957;DHT22;55361;50.876;20.634;2022-07-29T14:49:18;25;67
50957;DHT22;55361;50.876;20.634;2022-07-29T14:56:04;25;67
50957;DHT22;55361;50.876;20.634;2022-07-29T15:00:01;25;67
50957;DHT22;55361;50.876;20.634;2022-07-29T15:07:03;25;67
50957;DHT22;55361;50.876;20.634;2022-07-29T15:21:18;26;61
50957;DHT22;55361;50.876;20.634;2022-07-29T15:28:04;26;61
50957;DHT22;55361;50.876;20.634;2022-07-29T15:35:15;26;61
50957;DHT22;55361;50.876;20.634;2022-07-29T15:49:22;23;73
50957;DHT22;55361;50.876;20.634;2022-07-29T15:56:03;23;73
50957;DHT22;55361;50.876;20.634;2022-07-29T16:00:11;23;73
50957;DHT22;55361;50.876;20.634;2022-07-29T16:07:02;23;73
50957;DHT22;55361;50.876;20.634;2022-07-29T16:21:02;23;71
50957;DHT22;55361;50.876;20.634;2022-07-29T16:28:05;23;71
50957;DHT22;55361;50.876;20.634;2022-07-29T16:35:07;23;71
50957;DHT22;55361;50.876;20.634;2022-07-29T16:49:04;23;71
50957;DHT22;55361;50.876;20.634;2022-07-29T16:56:02;23;71
50957;DHT22;55361;50.876;20.634;2022-07-29T17:00:04;23;71
50957;DHT22;55361;50.876;20.634;2022-07-29T17:07:02;23;71
50957;DHT22;55361;50.876;20.634;2022-07-29T17:21:06;23;70
50957;DHT22;55361;50.876;20.634;2022-07-29T17:28:15;23;70
50957;DHT22;55361;50.876;20.634;2022-07-29T17:35:04;23;70
50957;DHT22;55361;50.876;20.634;2022-07-29T17:49:21;23;70
50957;DHT22;55361;50.876;20.634;2022-07-29T17:56:19;23;70
50957;DHT22;55361;50.876;20.634;2022-07-29T18:00:17;23;70
50957;DHT22;55361;50.876;20.634;2022-07-29T18:07:06;23;70
50957;DHT22;55361;50.876;20.634;2022-07-29T18:21:05;23;69
50957;DHT22;55361;50.876;20.634;2022-07-29T18:28:17;23;69
50957;DHT22;55361;50.876;20.634;2022-07-29T18:35:21;23;69
50957;DHT22;55361;50.876;20.634;2022-07-29T18:42:18;23;69
50957;DHT22;55361;50.876;20.634;2022-07-29T18:49:18;23;69
50957;DHT22;55361;50.876;20.634;2022-07-29T18:56:02;23;69
50957;DHT22;55361;50.876;20.634;2022-07-29T19:00:22;23;69
50957;DHT22;55361;50.876;20.634;2022-07-29T19:07:18;23;69
50957;DHT22;55361;50.876;20.634;2022-07-29T19:21:16;25;85
50957;DHT22;55361;50.876;20.634;2022-07-29T19:28:18;25;85
50957;DHT22;55361;50.876;20.634;2022-07-29T19:35:02;25;85
50957;DHT22;55361;50.876;20.634;2022-07-29T19:42:03;25;85
50957;DHT22;55361;50.876;20.634;2022-07-29T19:49:02;25;85
50957;DHT22;55361;50.876;20.634;2022-07-29T19:56:15;25;85
50957;DHT22;55361;50.876;20.634;2022-07-29T20:00:02;25;85
50957;DHT22;55361;50.876;20.634;2022-07-29T20:07:16;25;85
50957;DHT22;55361;50.876;20.634;2022-07-29T20:21:02;25;85
50957;DHT22;55361;50.876;20.634;2022-07-29T20:28:17;25;85
50957;DHT22;55361;50.876;20.634;2022-07-29T20:35:23;25;85
50957;DHT22;55361;50.876;20.634;2022-07-29T20:42:04;25;85
50957;DHT22;55361;50.876;20.634;2022-07-29T20:49:05;25;85
50957;DHT22;55361;50.876;20.634;2022-07-29T20:56:20;25;85
50957;DHT22;55361;50.876;20.634;2022-07-29T21:00:01;25;85
50957;DHT22;55361;50.876;20.634;2022-07-29T21:07:04;25;85
50957;DHT22;55361;50.876;20.634;2022-07-29T21:21:18;25;84
50957;DHT22;55361;50.876;20.634;2022-07-29T21:35:12;25;84
50957;DHT22;55361;50.876;20.634;2022-07-29T21:42:18;25;84
50957;DHT22;55361;50.876;20.634;2022-07-29T21:49:20;25;85
50957;DHT22;55361;50.876;20.634;2022-07-29T21:56:18;25;85
50957;DHT22;55361;50.876;20.634;2022-07-29T22:00:15;25;85
50957;DHT22;55361;50.876;20.634;2022-07-29T22:07:14;25;85
50957;DHT22;55361;50.876;20.634;2022-07-29T22:14:08;26;85
50957;DHT22;55361;50.876;20.634;2022-07-29T22:21:16;26;85
50957;DHT22;55361;50.876;20.634;2022-07-29T22:28:07;26;85
50957;DHT22;55361;50.876;20.634;2022-07-29T22:35:21;26;84
50957;DHT22;55361;50.876;20.634;2022-07-29T22:42:18;26;84
50957;DHT22;55361;50.876;20.634;2022-07-29T22:49:19;26;84
50957;DHT22;55361;50.876;20.634;2022-07-29T22:56:04;26;84
50957;DHT22;55361;50.876;20.634;2022-07-29T23:07:17;23;69
50957;DHT22;55361;50.876;20.634;2022-07-29T23:14:15;23;69
50957;DHT22;55361;50.876;20.634;2022-07-29T23:21:07;23;69
50957;DHT22;55361;50.876;20.634;2022-07-29T23:28:08;23;69
50957;DHT22;55361;50.876;20.634;2022-07-29T23:35:20;23;69
50957;DHT22;55361;50.876;20.634;2022-07-29T23:42:08;23;69
50957;DHT22;55361;50.876;20.634;2022-07-29T23:49:19;23;69
50957;DHT22;55361;50.876;20.634;2022-07-29T23:56:29;23;69
